createdAt,value
2018-04-15T00:00:31.679Z,11.25
2018-04-15T00:01:31.660Z,11.29
2018-04-15T00:02:31.586Z,11.23
2018-04-15T00:03:31.539Z,11.22
2018-04-15T00:04:31.485Z,11.32
2018-04-15T00:05:31.443Z,11.19
2018-04-15T00:06:31.421Z,11.28
2018-04-15T00:07:31.346Z,11.23
2018-04-15T00:08:31.303Z,11.32
2018-04-15T00:09:31.248Z,11.22
2018-04-15T00:10:31.212Z,11.28
2018-04-15T00:11:31.184Z,11.30
2018-04-15T00:12:31.110Z,11.32
2018-04-15T00:13:31.069Z,11.25
2018-04-15T00:14:31.015Z,11.22
2018-04-15T00:15:30.968Z,11.25
2018-04-15T00:16:30.944Z,11.28
2018-04-15T00:17:30.869Z,11.26
2018-04-15T00:18:30.824Z,11.28
2018-04-15T00:19:30.780Z,11.26
2018-04-15T00:20:30.730Z,11.23
2018-04-15T00:21:30.710Z,11.30
2018-04-15T00:22:30.635Z,11.26
2018-04-15T00:23:30.604Z,11.29
2018-04-15T00:24:30.535Z,11.30
2018-04-15T00:25:30.497Z,11.28
2018-04-15T00:26:30.469Z,11.15
2018-04-15T00:27:30.398Z,11.28
2018-04-15T00:28:30.357Z,11.25
2018-04-15T00:29:30.303Z,11.22
2018-04-15T00:30:30.257Z,11.25
2018-04-15T00:31:30.235Z,11.23
2018-04-15T00:32:30.159Z,11.22
2018-04-15T00:33:30.112Z,11.25
2018-04-15T00:34:30.068Z,11.28
2018-04-15T00:35:30.021Z,11.25
2018-04-15T00:36:29.997Z,11.19
2018-04-15T00:37:29.925Z,11.23
2018-04-15T00:38:29.876Z,11.28
2018-04-15T00:39:29.830Z,11.22
2018-04-15T00:40:29.783Z,11.28
2018-04-15T00:41:29.759Z,11.26
2018-04-15T00:42:29.686Z,11.26
2018-04-15T00:43:29.642Z,11.26
2018-04-15T00:44:29.594Z,11.22
2018-04-15T00:45:29.542Z,11.25
2018-04-15T00:46:29.519Z,11.23
2018-04-15T00:47:29.448Z,11.23
2018-04-15T00:48:29.408Z,11.25
2018-04-15T00:49:29.351Z,11.25
2018-04-15T00:50:29.309Z,11.29
2018-04-15T00:51:29.282Z,11.33
2018-04-15T00:52:29.215Z,11.29
2018-04-15T00:53:29.167Z,11.28
2018-04-15T00:54:29.123Z,11.32
2018-04-15T00:55:29.069Z,11.30
2018-04-15T00:56:29.043Z,11.25
2018-04-15T00:57:28.973Z,11.19
2018-04-15T00:58:28.928Z,11.25
2018-04-15T00:59:28.883Z,11.22
2018-04-15T01:00:28.832Z,11.10
2018-04-15T01:01:28.813Z,11.07
2018-04-15T01:02:28.742Z,11.30
2018-04-15T01:03:28.688Z,11.20
2018-04-15T01:04:28.643Z,11.19
2018-04-15T01:05:28.595Z,11.17
2018-04-15T01:06:28.572Z,11.08
2018-04-15T01:07:28.507Z,11.17
2018-04-15T01:08:28.451Z,11.17
2018-04-15T01:09:28.407Z,11.10
2018-04-15T01:10:28.358Z,11.11
2018-04-15T01:11:28.743Z,11.12
2018-04-15T01:12:28.260Z,11.11
2018-04-15T01:13:28.216Z,11.17
2018-04-15T01:14:28.171Z,11.17
2018-04-15T01:15:28.120Z,11.10
2018-04-15T01:16:28.100Z,11.11
2018-04-15T01:17:28.027Z,11.20
2018-04-15T01:18:27.977Z,11.20
2018-04-15T01:19:27.933Z,11.15
2018-04-15T01:20:27.881Z,11.23
2018-04-15T01:21:27.875Z,11.19
2018-04-15T01:22:27.793Z,11.20
2018-04-15T01:23:27.861Z,11.22
2018-04-15T01:24:27.694Z,11.20
2018-04-15T01:25:27.646Z,11.17
2018-04-15T01:26:27.597Z,11.12
2018-04-15T01:27:27.579Z,11.20
2018-04-15T01:28:27.502Z,11.30
2018-04-15T01:29:27.457Z,11.19
2018-04-15T01:30:27.409Z,11.22
2018-04-15T01:31:27.365Z,11.29
2018-04-15T01:32:27.342Z,11.20
2018-04-15T01:33:27.269Z,11.17
2018-04-15T01:34:27.219Z,11.20
2018-04-15T01:35:27.170Z,11.22
2018-04-15T01:36:27.127Z,11.32
2018-04-15T01:37:27.104Z,11.28
2018-04-15T01:38:27.029Z,11.28
2018-04-15T01:39:26.980Z,11.20
2018-04-15T01:40:26.935Z,11.25
2018-04-15T01:41:26.893Z,11.20
2018-04-15T01:42:26.865Z,11.26
2018-04-15T01:43:26.789Z,11.28
2018-04-15T01:44:26.744Z,11.30
2018-04-15T01:45:26.702Z,11.20
2018-04-15T01:46:26.651Z,11.28
2018-04-15T01:47:26.630Z,11.28
2018-04-15T01:48:26.553Z,11.25
2018-04-15T01:49:26.508Z,11.26
2018-04-15T01:50:26.461Z,11.26
2018-04-15T01:52:58.073Z,11.35
2018-04-15T01:53:58.012Z,11.30
2018-04-15T01:54:57.956Z,11.37
2018-04-15T01:55:57.908Z,11.26
2018-04-15T01:56:57.893Z,11.26
2018-04-15T01:57:57.812Z,11.26
2018-04-15T01:58:57.768Z,11.26
2018-04-15T01:59:57.718Z,11.23
2018-04-15T02:00:57.672Z,11.28
2018-04-15T02:01:57.652Z,11.26
2018-04-15T02:02:57.580Z,11.28
2018-04-15T02:03:57.530Z,11.25
2018-04-15T02:04:57.482Z,11.23
2018-04-15T02:05:57.434Z,11.22
2018-04-15T02:06:57.413Z,11.30
2018-04-15T02:07:57.340Z,11.29
2018-04-15T02:08:57.293Z,11.22
2018-04-15T02:09:57.247Z,11.22
2018-04-15T02:10:57.198Z,11.20
2018-04-15T02:11:57.179Z,11.30
2018-04-15T02:12:57.112Z,11.25
2018-04-15T02:13:57.064Z,11.20
2018-04-15T02:14:57.012Z,11.15
2018-04-15T02:15:56.965Z,11.23
2018-04-15T02:16:56.957Z,11.23
2018-04-15T02:17:56.873Z,11.22
2018-04-15T02:18:56.823Z,11.22
2018-04-15T02:19:56.776Z,11.25
2018-04-15T02:20:56.729Z,11.25
2018-04-15T02:21:56.687Z,11.20
2018-04-15T02:22:56.659Z,11.22
2018-04-15T02:23:56.589Z,11.25
2018-04-15T02:24:56.542Z,11.17
2018-04-15T02:25:56.493Z,11.19
2018-04-15T02:26:56.445Z,11.25
2018-04-15T02:27:56.431Z,11.19
2018-04-15T02:28:56.355Z,11.23
2018-04-15T02:29:56.308Z,11.22
2018-04-15T02:30:56.259Z,11.15
2018-04-15T02:31:56.217Z,11.25
2018-04-15T02:32:56.190Z,11.22
2018-04-15T02:33:56.119Z,11.17
2018-04-15T02:34:56.074Z,11.23
2018-04-15T02:35:56.021Z,11.20
2018-04-15T02:36:55.973Z,11.14
2018-04-15T02:37:55.954Z,11.25
2018-04-15T02:38:55.886Z,11.22
2018-04-15T02:39:55.840Z,11.28
2018-04-15T02:40:55.788Z,11.25
2018-04-15T02:41:55.739Z,11.23
2018-04-15T02:42:55.720Z,11.23
2018-04-15T02:43:55.645Z,11.22
2018-04-15T02:44:55.598Z,11.17
2018-04-15T02:45:55.550Z,11.25
2018-04-15T02:46:55.506Z,11.12
2018-04-15T02:47:55.486Z,11.10
2018-04-15T02:48:55.411Z,11.17
2018-04-15T02:49:55.363Z,11.19
2018-04-15T02:50:55.322Z,11.14
2018-04-15T02:51:55.276Z,11.22
2018-04-15T02:52:55.248Z,11.20
2018-04-15T02:53:55.175Z,11.10
2018-04-15T02:54:55.128Z,11.17
2018-04-15T02:55:55.084Z,11.11
2018-04-15T02:56:55.034Z,11.11
2018-04-15T02:57:55.011Z,11.07
2018-04-15T02:58:54.941Z,11.12
2018-04-15T02:59:54.898Z,11.11
2018-04-15T03:00:54.894Z,11.17
2018-04-15T03:01:54.799Z,11.14
2018-04-15T03:02:54.779Z,11.05
2018-04-15T03:03:54.707Z,11.12
2018-04-15T03:04:54.662Z,11.10
2018-04-15T03:05:54.618Z,11.04
2018-04-15T03:06:54.565Z,11.03
2018-04-15T03:07:54.546Z,11.05
2018-04-15T03:08:54.468Z,11.00
2018-04-15T03:09:54.424Z,11.00
2018-04-15T03:10:54.380Z,10.90
2018-04-15T03:11:54.326Z,10.86
2018-04-15T03:12:54.307Z,10.93
2018-04-15T03:13:54.235Z,10.85
2018-04-15T03:14:54.187Z,10.78
2018-04-15T03:15:54.142Z,10.79
2018-04-15T03:16:54.096Z,10.70
2018-04-15T03:17:54.071Z,10.62
2018-04-15T03:18:53.996Z,10.62
2018-04-15T03:19:53.950Z,10.64
2018-04-15T03:20:53.908Z,10.71
2018-04-15T03:21:53.861Z,10.75
2018-04-15T03:22:53.835Z,10.70
2018-04-15T03:23:53.762Z,10.68
2018-04-15T03:24:53.717Z,10.68
2018-04-15T03:26:00.777Z,10.62
2018-04-15T03:26:53.620Z,10.74
2018-04-15T03:27:53.598Z,10.72
2018-04-15T03:28:53.522Z,10.71
2018-04-15T03:29:53.476Z,10.62
2018-04-15T03:30:53.429Z,10.72
2018-04-15T03:31:53.382Z,10.68
2018-04-15T03:32:53.358Z,10.64
2018-04-15T03:33:53.286Z,10.68
2018-04-15T03:34:53.237Z,10.70
2018-04-15T03:35:53.193Z,10.72
2018-04-15T03:36:53.145Z,10.78
2018-04-15T03:37:53.119Z,10.67
2018-04-15T03:38:53.051Z,10.71
2018-04-15T03:39:53.000Z,10.65
2018-04-15T03:40:52.956Z,10.67
2018-04-15T03:41:52.906Z,10.75
2018-04-15T03:42:52.882Z,10.72
2018-04-15T03:43:52.826Z,10.65
2018-04-15T03:44:52.767Z,10.74
2018-04-15T03:45:52.720Z,10.70
2018-04-15T03:46:52.668Z,10.68
2018-04-15T03:47:52.693Z,10.77
2018-04-15T03:48:52.580Z,10.77
2018-04-15T03:49:52.529Z,10.72
2018-04-15T03:50:52.486Z,10.79
2018-04-15T03:51:52.433Z,10.72
2018-04-15T03:52:52.410Z,10.71
2018-04-15T03:53:52.344Z,10.72
2018-04-15T03:54:52.292Z,10.78
2018-04-15T03:55:52.243Z,10.74
2018-04-15T03:56:52.193Z,10.74
2018-04-15T03:57:52.174Z,10.75
2018-04-15T03:58:52.101Z,10.77
2018-04-15T03:59:52.055Z,10.85
2018-04-15T04:00:52.004Z,10.77
2018-04-15T04:01:51.956Z,10.83
2018-04-15T04:02:51.953Z,10.86
2018-04-15T04:03:51.871Z,10.85
2018-04-15T04:04:51.816Z,10.86
2018-04-15T04:05:51.770Z,10.90
2018-04-15T04:06:51.721Z,10.85
2018-04-15T04:07:51.679Z,10.87
2018-04-15T04:08:51.652Z,10.85
2018-04-15T04:09:51.581Z,10.86
2018-04-15T04:10:51.530Z,10.79
2018-04-15T04:11:51.487Z,10.90
2018-04-15T04:12:51.446Z,10.86
2018-04-15T04:13:51.417Z,10.85
2018-04-15T04:14:51.340Z,10.90
2018-04-15T04:15:51.295Z,10.82
2018-04-15T04:16:51.248Z,10.83
2018-04-15T04:17:51.201Z,10.83
2018-04-15T04:18:51.180Z,10.74
2018-04-15T04:19:51.108Z,10.79
2018-04-15T04:20:51.058Z,10.79
2018-04-15T04:21:51.010Z,10.79
2018-04-15T04:22:50.970Z,10.75
2018-04-15T04:23:50.948Z,10.75
2018-04-15T04:24:50.868Z,10.77
2018-04-15T04:25:50.821Z,10.82
2018-04-15T04:26:50.774Z,10.77
2018-04-15T04:27:50.739Z,10.75
2018-04-15T04:28:50.703Z,10.89
2018-04-15T04:29:50.632Z,10.78
2018-04-15T04:30:50.582Z,10.83
2018-04-15T04:31:50.540Z,10.75
2018-04-15T04:32:50.488Z,10.75
2018-04-15T04:33:50.470Z,10.78
2018-04-15T04:34:50.395Z,10.72
2018-04-15T04:35:50.354Z,10.74
2018-04-15T04:36:57.430Z,10.78
2018-04-15T04:37:50.251Z,10.79
2018-04-15T04:38:50.228Z,10.75
2018-04-15T04:39:50.154Z,10.83
2018-04-15T04:40:50.107Z,10.78
2018-04-15T04:41:50.060Z,10.79
2018-04-15T04:42:50.011Z,10.85
2018-04-15T04:43:49.989Z,10.85
2018-04-15T04:44:49.914Z,10.78
2018-04-15T04:45:49.867Z,10.74
2018-04-15T04:46:49.819Z,10.75
2018-04-15T04:47:49.771Z,10.82
2018-04-15T04:48:49.755Z,10.82
2018-04-15T04:49:49.677Z,10.79
2018-04-15T04:50:49.645Z,10.78
2018-04-15T04:51:49.581Z,10.74
2018-04-15T04:52:49.534Z,10.70
2018-04-15T04:53:49.513Z,10.68
2018-04-15T04:54:49.440Z,10.67
2018-04-15T04:55:49.390Z,10.75
2018-04-15T04:56:49.344Z,10.68
2018-04-15T04:57:49.297Z,10.72
2018-04-15T04:58:49.272Z,10.71
2018-04-15T04:59:49.200Z,10.72
2018-04-15T05:00:49.154Z,10.70
2018-04-15T05:01:49.105Z,10.65
2018-04-15T05:02:49.055Z,10.60
2018-04-15T05:03:49.035Z,10.57
2018-04-15T05:04:48.965Z,10.54
2018-04-15T05:05:48.921Z,10.64
2018-04-15T05:06:48.869Z,10.57
2018-04-15T05:07:48.822Z,10.64
2018-04-15T05:08:48.804Z,10.59
2018-04-15T05:09:48.722Z,10.60
2018-04-15T05:10:48.679Z,10.62
2018-04-15T05:11:48.632Z,10.62
2018-04-15T05:12:48.582Z,10.54
2018-04-15T05:13:48.533Z,10.59
2018-04-15T05:14:48.509Z,10.70
2018-04-15T05:15:48.438Z,10.71
2018-04-15T05:16:48.392Z,10.74
2018-04-15T05:17:48.343Z,10.77
2018-04-15T05:18:48.298Z,10.65
2018-04-15T05:19:48.270Z,10.67
2018-04-15T05:20:48.196Z,10.67
2018-04-15T05:21:48.150Z,10.70
2018-04-15T05:22:48.103Z,10.75
2018-04-15T05:23:48.057Z,10.64
2018-04-15T05:24:48.031Z,10.77
2018-04-15T05:27:19.584Z,10.67
2018-04-15T05:28:19.534Z,10.67
2018-04-15T05:29:19.510Z,10.77
2018-04-15T05:30:19.442Z,10.72
2018-04-15T05:31:19.389Z,10.75
2018-04-15T05:32:19.352Z,10.67
2018-04-15T05:33:19.293Z,10.70
2018-04-15T05:34:19.272Z,10.68
2018-04-15T05:35:19.200Z,10.72
2018-04-15T05:36:19.149Z,10.71
2018-04-15T05:37:19.102Z,10.77
2018-04-15T05:38:19.057Z,10.82
2018-04-15T05:39:19.033Z,10.75
2018-04-15T05:40:18.970Z,10.85
2018-04-15T05:41:18.911Z,10.83
2018-04-15T05:42:18.863Z,10.85
2018-04-15T05:43:18.816Z,10.89
2018-04-15T05:44:18.792Z,10.86
2018-04-15T05:45:18.724Z,10.74
2018-04-15T05:46:18.672Z,10.86
2018-04-15T05:47:18.627Z,10.83
2018-04-15T05:48:18.577Z,10.83
2018-04-15T05:49:18.557Z,10.89
2018-04-15T05:50:18.482Z,10.86
2018-04-15T05:51:18.442Z,10.85
2018-04-15T05:52:18.439Z,10.89
2018-04-15T05:53:18.340Z,10.89
2018-04-15T05:54:18.318Z,10.87
2018-04-15T05:55:18.246Z,10.85
2018-04-15T05:56:18.198Z,10.86
2018-04-15T05:57:18.148Z,10.89
2018-04-15T05:58:18.105Z,10.92
2018-04-15T05:59:18.080Z,10.93
2018-04-15T06:00:18.012Z,10.87
2018-04-15T06:01:17.960Z,10.96
2018-04-15T06:02:17.915Z,10.90
2018-04-15T06:03:17.862Z,10.95
2018-04-15T06:04:17.857Z,10.92
2018-04-15T06:05:17.813Z,10.92
2018-04-15T06:06:17.722Z,10.97
2018-04-15T06:07:17.675Z,10.90
2018-04-15T06:08:17.627Z,10.96
2018-04-15T06:09:17.584Z,11.00
2018-04-15T06:10:17.554Z,10.93
2018-04-15T06:11:17.485Z,10.92
2018-04-15T06:12:17.440Z,11.01
2018-04-15T06:13:17.389Z,11.00
2018-04-15T06:14:17.345Z,11.05
2018-04-15T06:15:17.323Z,11.01
2018-04-15T06:16:17.246Z,10.96
2018-04-15T06:17:17.200Z,10.97
2018-04-15T06:18:17.148Z,11.03
2018-04-15T06:19:17.105Z,11.00
2018-04-15T06:20:17.084Z,11.03
2018-04-15T06:21:17.008Z,11.04
2018-04-15T06:22:16.963Z,10.97
2018-04-15T06:23:16.912Z,11.01
2018-04-15T06:24:16.869Z,11.04
2018-04-15T06:25:16.840Z,11.03
2018-04-15T06:26:16.772Z,11.04
2018-04-15T06:27:16.726Z,11.05
2018-04-15T06:28:16.679Z,11.04
2018-04-15T06:29:16.632Z,11.11
2018-04-15T06:30:16.604Z,11.11
2018-04-15T06:31:16.532Z,11.08
2018-04-15T06:32:16.483Z,11.04
2018-04-15T06:33:16.435Z,11.12
2018-04-15T06:34:16.387Z,11.04
2018-04-15T06:35:16.370Z,11.07
2018-04-15T06:36:16.292Z,11.12
2018-04-15T06:37:16.244Z,11.11
2018-04-15T06:38:16.205Z,11.17
2018-04-15T06:39:16.151Z,11.12
2018-04-15T06:40:16.131Z,11.10
2018-04-15T06:41:16.056Z,11.10
2018-04-15T06:42:16.008Z,11.11
2018-04-15T06:43:15.961Z,11.10
2018-04-15T06:44:15.914Z,11.10
2018-04-15T06:45:15.932Z,11.07
2018-04-15T06:46:15.817Z,11.17
2018-04-15T06:47:15.772Z,11.20
2018-04-15T06:48:15.744Z,11.17
2018-04-15T06:49:15.716Z,11.17
2018-04-15T06:50:15.654Z,11.19
2018-04-15T06:51:15.581Z,11.15
2018-04-15T06:52:15.536Z,11.17
2018-04-15T06:53:15.488Z,11.14
2018-04-15T06:54:15.440Z,11.08
2018-04-15T06:55:15.417Z,11.14
2018-04-15T06:56:15.345Z,11.12
2018-04-15T06:57:15.296Z,11.10
2018-04-15T06:58:15.249Z,11.28
2018-04-15T06:59:15.204Z,11.20
2018-04-15T07:00:15.180Z,11.22
2018-04-15T07:01:15.105Z,11.23
2018-04-15T07:02:15.059Z,11.22
2018-04-15T07:03:15.008Z,11.17
2018-04-15T07:04:14.965Z,11.25
2018-04-15T07:05:14.940Z,11.29
2018-04-15T07:06:14.869Z,11.32
2018-04-15T07:07:14.823Z,11.25
2018-04-15T07:08:14.780Z,11.28
2018-04-15T07:09:14.726Z,11.23
2018-04-15T07:10:14.710Z,11.33
2018-04-15T07:11:14.636Z,11.33
2018-04-15T07:12:14.585Z,11.32
2018-04-15T07:13:14.537Z,11.30
2018-04-15T07:14:14.491Z,11.38
2018-04-15T07:15:14.471Z,11.41
2018-04-15T07:16:14.397Z,11.40
2018-04-15T07:17:14.351Z,11.46
2018-04-15T07:18:14.303Z,11.51
2018-04-15T07:19:14.259Z,11.44
2018-04-15T07:20:14.230Z,11.44
2018-04-15T07:21:14.162Z,11.51
2018-04-15T07:22:14.119Z,11.51
2018-04-15T07:23:14.065Z,11.50
2018-04-15T07:24:14.020Z,11.63
2018-04-15T07:25:13.996Z,11.56
2018-04-15T07:26:13.924Z,11.62
2018-04-15T07:27:13.877Z,11.62
2018-04-15T07:28:13.829Z,11.58
2018-04-15T07:29:13.786Z,11.71
2018-04-15T07:30:13.761Z,11.71
2018-04-15T07:31:13.690Z,11.79
2018-04-15T07:32:13.640Z,11.81
2018-04-15T07:33:13.598Z,11.90
2018-04-15T07:34:13.545Z,11.83
2018-04-15T07:35:13.525Z,11.91
2018-04-15T07:36:13.454Z,11.96
2018-04-15T07:37:13.408Z,12.00
2018-04-15T07:38:13.358Z,11.99
2018-04-15T07:39:13.311Z,11.99
2018-04-15T07:40:13.288Z,11.96
2018-04-15T07:41:13.222Z,12.05
2018-04-15T07:42:13.177Z,12.05
2018-04-15T07:43:13.138Z,12.06
2018-04-15T07:44:13.080Z,12.14
2018-04-15T07:45:13.055Z,12.07
2018-04-15T07:46:13.003Z,12.06
2018-04-15T07:47:12.941Z,12.13
2018-04-15T07:48:12.891Z,12.14
2018-04-15T07:49:12.849Z,12.13
2018-04-15T07:50:12.824Z,12.17
2018-04-15T07:51:12.753Z,12.22
2018-04-15T07:52:12.704Z,12.20
2018-04-15T07:53:12.655Z,12.24
2018-04-15T07:54:12.609Z,12.24
2018-04-15T07:55:12.596Z,12.25
2018-04-15T07:56:12.524Z,12.21
2018-04-15T07:57:12.469Z,12.28
2018-04-15T07:58:12.423Z,12.27
2018-04-15T07:59:12.381Z,12.21
2018-04-15T08:00:12.334Z,12.22
2018-04-15T08:01:12.307Z,12.24
2018-04-15T08:02:12.238Z,12.24
2018-04-15T08:03:12.193Z,12.22
2018-04-15T08:04:12.143Z,12.25
2018-04-15T08:05:12.095Z,12.20
2018-04-15T08:06:12.077Z,12.17
2018-04-15T08:07:12.009Z,12.35
2018-04-15T08:08:11.959Z,12.25
2018-04-15T08:09:11.914Z,12.22
2018-04-15T08:10:11.865Z,12.20
2018-04-15T08:11:11.845Z,12.21
2018-04-15T08:12:11.775Z,12.28
2018-04-15T08:13:11.724Z,12.28
2018-04-15T08:14:11.678Z,12.20
2018-04-15T08:15:11.637Z,12.27
2018-04-15T08:16:11.616Z,12.38
2018-04-15T08:17:11.549Z,12.39
2018-04-15T08:18:11.492Z,12.38
2018-04-15T08:19:11.447Z,12.39
2018-04-15T08:20:11.402Z,12.38
2018-04-15T08:21:11.382Z,12.33
2018-04-15T08:22:11.305Z,12.36
2018-04-15T08:23:11.259Z,12.38
2018-04-15T08:24:11.212Z,12.40
2018-04-15T08:25:11.178Z,12.38
2018-04-15T08:26:11.151Z,12.30
2018-04-15T08:27:11.070Z,12.38
2018-04-15T08:28:11.028Z,12.39
2018-04-15T08:29:10.982Z,12.38
2018-04-15T08:30:10.931Z,12.42
2018-04-15T08:31:10.925Z,12.47
2018-04-15T08:32:10.844Z,12.53
2018-04-15T08:33:10.792Z,12.57
2018-04-15T08:34:10.748Z,12.54
2018-04-15T08:35:10.703Z,12.57
2018-04-15T08:36:10.684Z,12.61
2018-04-15T08:37:10.608Z,12.65
2018-04-15T08:38:10.568Z,12.65
2018-04-15T08:39:10.516Z,12.63
2018-04-15T08:40:10.467Z,12.65
2018-04-15T08:41:10.455Z,12.72
2018-04-15T08:42:10.376Z,12.75
2018-04-15T08:43:10.331Z,12.73
2018-04-15T08:44:10.281Z,12.78
2018-04-15T08:45:10.232Z,12.80
2018-04-15T08:46:10.213Z,12.90
2018-04-15T08:47:10.146Z,12.88
2018-04-15T08:48:10.097Z,12.88
2018-04-15T08:49:10.052Z,12.93
2018-04-15T08:50:10.006Z,12.91
2018-04-15T08:51:09.981Z,12.93
2018-04-15T08:52:09.916Z,12.88
2018-04-15T08:53:09.864Z,12.97
2018-04-15T08:54:09.820Z,12.96
2018-04-15T08:55:09.772Z,13.11
2018-04-15T08:56:09.748Z,13.12
2018-04-15T08:57:09.681Z,13.19
2018-04-15T08:58:09.639Z,13.27
2018-04-15T08:59:09.590Z,13.26
2018-04-15T09:00:09.542Z,13.33
2018-04-15T09:01:09.519Z,13.31
2018-04-15T09:02:09.450Z,13.41
2018-04-15T09:03:09.406Z,13.37
2018-04-15T09:04:09.355Z,13.37
2018-04-15T09:05:09.313Z,13.50
2018-04-15T09:06:09.289Z,13.31
2018-04-15T09:07:09.218Z,13.53
2018-04-15T09:08:09.171Z,13.50
2018-04-15T09:09:09.146Z,13.50
2018-04-15T09:10:09.080Z,13.46
2018-04-15T09:11:09.062Z,13.52
2018-04-15T09:12:08.989Z,13.53
2018-04-15T09:13:08.948Z,13.50
2018-04-15T09:14:08.905Z,13.56
2018-04-15T09:15:08.850Z,13.53
2018-04-15T09:16:08.840Z,13.53
2018-04-15T09:17:08.760Z,13.50
2018-04-15T09:18:08.734Z,13.55
2018-04-15T09:19:08.667Z,13.63
2018-04-15T09:20:08.622Z,13.49
2018-04-15T09:21:08.598Z,13.56
2018-04-15T09:22:08.531Z,13.53
2018-04-15T09:23:08.485Z,13.55
2018-04-15T09:24:08.443Z,13.67
2018-04-15T09:25:08.397Z,13.72
2018-04-15T09:26:08.370Z,13.77
2018-04-15T09:27:08.301Z,13.82
2018-04-15T09:28:08.254Z,13.96
2018-04-15T09:29:08.207Z,14.01
2018-04-15T09:30:08.201Z,14.01
2018-04-15T09:31:08.146Z,14.08
2018-04-15T09:32:08.079Z,14.14
2018-04-15T09:33:08.026Z,14.13
2018-04-15T09:34:07.985Z,14.28
2018-04-15T09:35:07.935Z,14.33
2018-04-15T09:36:07.941Z,14.33
2018-04-15T09:37:07.846Z,14.47
2018-04-15T09:38:07.803Z,14.47
2018-04-15T09:39:07.756Z,14.63
2018-04-15T09:40:07.722Z,14.62
2018-04-15T09:41:07.681Z,14.77
2018-04-15T09:42:07.641Z,14.89
2018-04-15T09:43:07.576Z,14.85
2018-04-15T09:44:07.528Z,14.87
2018-04-15T09:45:07.484Z,14.73
2018-04-15T09:46:07.435Z,14.81
2018-04-15T09:47:07.421Z,14.87
2018-04-15T09:48:07.348Z,14.95
2018-04-15T09:49:07.299Z,14.99
2018-04-15T09:50:07.261Z,14.96
2018-04-15T09:51:07.212Z,15.03
2018-04-15T09:52:07.199Z,15.00
2018-04-15T09:53:07.122Z,14.97
2018-04-15T09:54:07.081Z,14.99
2018-04-15T09:55:07.034Z,14.79
2018-04-15T09:56:06.990Z,14.91
2018-04-15T09:57:06.971Z,14.81
2018-04-15T09:58:06.901Z,14.84
2018-04-15T09:59:06.914Z,14.89
2018-04-15T10:00:06.941Z,14.85
2018-04-15T10:01:06.809Z,14.91
2018-04-15T10:02:06.749Z,15.00
2018-04-15T10:03:06.679Z,15.03
2018-04-15T10:04:06.631Z,15.17
2018-04-15T10:05:06.592Z,15.19
2018-04-15T10:06:06.547Z,15.35
2018-04-15T10:07:06.522Z,15.35
2018-04-15T10:08:06.453Z,15.32
2018-04-15T10:09:06.412Z,15.19
2018-04-15T10:10:06.365Z,15.14
2018-04-15T10:11:06.322Z,15.19
2018-04-15T10:12:06.304Z,15.39
2018-04-15T10:13:06.230Z,15.43
2018-04-15T10:14:06.187Z,15.60
2018-04-15T10:15:06.156Z,15.61
2018-04-15T10:16:06.099Z,15.52
2018-04-15T10:17:06.080Z,15.42
2018-04-15T10:18:06.013Z,15.32
2018-04-15T10:19:05.964Z,15.28
2018-04-15T10:20:05.926Z,14.95
2018-04-15T10:21:05.884Z,14.99
2018-04-15T10:22:05.859Z,14.99
2018-04-15T10:23:05.787Z,14.99
2018-04-15T10:24:05.792Z,14.99
2018-04-15T10:25:05.701Z,15.00
2018-04-15T10:26:05.656Z,14.96
2018-04-15T10:27:05.641Z,14.93
2018-04-15T10:28:05.568Z,14.97
2018-04-15T10:29:05.522Z,15.02
2018-04-15T10:30:05.480Z,15.09
2018-04-15T10:31:05.433Z,15.02
2018-04-15T10:32:05.385Z,15.17
2018-04-15T10:33:05.363Z,14.97
2018-04-15T10:34:05.300Z,14.84
2018-04-15T10:35:05.255Z,14.81
2018-04-15T10:36:05.211Z,14.85
2018-04-15T10:37:05.160Z,14.88
2018-04-15T10:38:05.142Z,14.84
2018-04-15T10:39:05.078Z,14.89
2018-04-15T10:40:05.030Z,14.97
2018-04-15T10:41:05.054Z,15.09
2018-04-15T10:42:04.941Z,15.03
2018-04-15T10:43:04.918Z,15.15
2018-04-15T10:44:04.850Z,15.17
2018-04-15T10:45:04.805Z,15.18
2018-04-15T10:46:04.805Z,15.21
2018-04-15T10:47:04.718Z,15.22
2018-04-15T10:48:04.694Z,15.19
2018-04-15T10:49:04.631Z,15.19
2018-04-15T10:50:04.581Z,15.19
2018-04-15T10:51:04.535Z,15.19
2018-04-15T10:52:04.495Z,15.30
2018-04-15T10:53:04.469Z,15.39
2018-04-15T10:54:04.401Z,15.42
2018-04-15T10:55:04.353Z,15.44
2018-04-15T10:56:04.307Z,15.42
2018-04-15T10:57:04.266Z,15.22
2018-04-15T10:58:04.242Z,15.17
2018-04-15T10:59:04.173Z,15.18
2018-04-15T11:00:04.130Z,15.19
2018-04-15T11:01:04.084Z,15.19
2018-04-15T11:02:04.037Z,15.19
2018-04-15T11:03:04.019Z,15.27
2018-04-15T11:04:03.948Z,15.18
2018-04-15T11:05:03.905Z,15.04
2018-04-15T11:06:03.859Z,14.99
2018-04-15T11:07:03.816Z,14.96
2018-04-15T11:08:03.793Z,15.04
2018-04-15T11:09:03.723Z,14.97
2018-04-15T11:10:03.677Z,15.02
2018-04-15T11:11:03.632Z,15.14
2018-04-15T11:12:03.588Z,15.15
2018-04-15T11:13:03.565Z,15.18
2018-04-15T11:14:03.533Z,15.33
2018-04-15T11:15:03.453Z,15.25
2018-04-15T11:16:03.410Z,15.42
2018-04-15T11:17:03.365Z,15.40
2018-04-15T11:18:03.347Z,15.57
2018-04-15T11:19:03.276Z,15.57
2018-04-15T11:20:03.234Z,15.69
2018-04-15T11:21:03.182Z,15.75
2018-04-15T11:22:03.143Z,15.76
2018-04-15T11:23:03.142Z,15.70
2018-04-15T11:24:03.052Z,15.68
2018-04-15T11:25:03.005Z,15.69
2018-04-15T11:26:02.960Z,15.65
2018-04-15T11:27:02.916Z,15.61
2018-04-15T11:28:02.895Z,15.46
2018-04-15T11:29:02.824Z,15.55
2018-04-15T11:30:02.780Z,15.54
2018-04-15T11:31:02.738Z,15.58
2018-04-15T11:32:02.689Z,15.57
2018-04-15T11:33:02.689Z,15.60
2018-04-15T11:34:02.600Z,15.77
2018-04-15T11:35:02.563Z,15.82
2018-04-15T11:36:02.514Z,15.85
2018-04-15T11:37:02.465Z,16.02
2018-04-15T11:38:02.482Z,16.05
2018-04-15T11:39:02.375Z,16.12
2018-04-15T11:40:02.332Z,16.17
2018-04-15T11:41:02.285Z,16.16
2018-04-15T11:42:02.263Z,16.13
2018-04-15T11:43:02.223Z,16.08
2018-04-15T11:44:02.155Z,16.05
2018-04-15T11:45:02.106Z,16.06
2018-04-15T11:46:02.065Z,16.05
2018-04-15T11:47:02.023Z,16.10
2018-04-15T11:48:01.998Z,16.26
2018-04-15T11:49:01.935Z,16.38
2018-04-15T11:50:01.910Z,16.44
2018-04-15T11:51:01.847Z,16.51
2018-04-15T11:52:01.799Z,16.61
2018-04-15T11:53:01.780Z,16.65
2018-04-15T11:54:01.719Z,16.71
2018-04-15T11:55:01.678Z,16.84
2018-04-15T11:56:01.627Z,16.84
2018-04-15T11:57:01.578Z,16.83
2018-04-15T11:58:01.565Z,16.96
2018-04-15T11:59:01.493Z,16.96
2018-04-15T12:00:01.445Z,16.98
2018-04-15T12:01:01.400Z,16.84
2018-04-15T12:02:01.355Z,16.84
2018-04-15T12:03:01.342Z,16.72
2018-04-15T12:04:01.269Z,16.75
2018-04-15T12:05:01.225Z,16.79
2018-04-15T12:06:01.180Z,16.69
2018-04-15T12:07:01.142Z,16.72
2018-04-15T12:08:01.118Z,16.62
2018-04-15T12:09:01.053Z,16.62
2018-04-15T12:10:01.004Z,16.54
2018-04-15T12:11:01.004Z,16.57
2018-04-15T12:12:00.917Z,16.64
2018-04-15T12:13:00.900Z,16.61
2018-04-15T12:14:00.832Z,16.64
2018-04-15T12:15:00.787Z,16.74
2018-04-15T12:16:00.744Z,16.71
2018-04-15T12:17:00.700Z,16.84
2018-04-15T12:18:00.696Z,16.80
2018-04-15T12:19:00.610Z,16.99
2018-04-15T12:20:00.567Z,16.86
2018-04-15T12:21:00.521Z,17.02
2018-04-15T12:22:00.482Z,17.08
2018-04-15T12:23:00.459Z,17.20
2018-04-15T12:24:00.401Z,17.22
2018-04-15T12:25:00.350Z,17.37
2018-04-15T12:26:00.304Z,17.27
2018-04-15T12:27:00.264Z,17.30
2018-04-15T12:28:00.242Z,17.23
2018-04-15T12:29:00.173Z,17.30
2018-04-15T12:30:00.133Z,17.06
2018-04-15T12:31:00.086Z,17.01
2018-04-15T12:32:00.044Z,16.90
2018-04-15T12:33:00.024Z,16.84
2018-04-15T12:33:59.961Z,16.75
2018-04-15T12:34:59.912Z,16.57
2018-04-15T12:35:59.869Z,16.56
2018-04-15T12:36:59.823Z,16.43
2018-04-15T12:37:59.805Z,16.56
2018-04-15T12:38:59.737Z,16.56
2018-04-15T12:39:59.699Z,16.56
2018-04-15T12:40:59.659Z,16.56
2018-04-15T12:41:59.626Z,16.62
2018-04-15T12:42:59.582Z,16.65
2018-04-15T12:43:59.514Z,16.84
2018-04-15T12:44:59.472Z,16.96
2018-04-15T12:45:59.427Z,16.96
2018-04-15T12:46:59.383Z,17.09
2018-04-15T12:47:59.371Z,17.11
2018-04-15T12:48:59.294Z,17.20
2018-04-15T12:49:59.251Z,17.31
2018-04-15T12:50:59.208Z,17.31
2018-04-15T12:51:59.162Z,17.33
2018-04-15T12:52:59.140Z,17.48
2018-04-15T12:53:59.079Z,17.38
2018-04-15T12:54:59.032Z,17.33